Sattley, California
Current Conditions -  °F | °C
As of 11:52 AM on Friday 21 Nov 2014 (Local Time) from KBLU Reporting Station
Clear Clear  
Wind Chill: 39°   Ceiling: Unl
Heat Index: 43°   Visibility: 10mi
Dew Point: 33°   Wind: 6mph
Humidity: 68%   Direction: 200°SSW
Pressure: 30.1"   Gusts: NA
Location:  39.6428°N, 120.493°W
Report Text: KBLU 211952Z AUTO 20005KT 10SM CLR 06/01 A3010 RMK AO2 SLP177 T00610006
Loading
Personal Weather Stations






























Interactive Weather Map New forecast layout! Learn more

10-Day Weather Forecast

Advertisements
Track Severe Weather on mobile